Time;durP1;ratioP1;P1;durP2;ratioP2;P2;SDS_P1;SDS_P2;PMS_P1;PMS_P2;Temp;Humidity;BMP_temperature;BMP_pressure;BME280_temperature;BME280_humidity;BME280_pressure;Samples;Min_cycle;Max_cycle;Signal;HPM_P1;HPM_P2
2023/07/01 00:01:19;;;;;;;23.70;13.48;;;18.10;99.90;;;;;;5052154;28;20056;-52
2023/07/01 00:04:23;;;;;;;19.30;12.32;;;18.10;99.90;;;;;;5052582;28;20044;-51
2023/07/01 00:07:27;;;;;;;20.77;11.80;;;18.10;99.90;;;;;;5052716;28;20403;-52
2023/07/01 00:10:32;;;;;;;24.73;12.65;;;18.20;99.90;;;;;;5052476;28;20051;-52
2023/07/01 00:13:36;;;;;;;15.93;11.40;;;18.20;99.90;;;;;;5052094;28;20507;-52
2023/07/01 00:16:40;;;;;;;20.88;11.18;;;18.30;99.90;;;;;;5052401;28;20040;-54
2023/07/01 00:19:44;;;;;;;19.02;11.48;;;18.30;99.90;;;;;;5051909;28;20403;-52
2023/07/01 00:22:48;;;;;;;24.70;12.80;;;18.30;99.90;;;;;;5051273;28;20053;-53
2023/07/01 00:25:52;;;;;;;19.08;11.93;;;18.30;99.90;;;;;;5052421;28;20052;-51
2023/07/01 00:28:56;;;;;;;25.05;12.75;;;18.20;99.90;;;;;;5052186;28;20534;-52
2023/07/01 00:32:00;;;;;;;20.27;12.73;;;18.20;99.90;;;;;;5050566;28;20431;-53
2023/07/01 00:35:05;;;;;;;22.00;11.80;;;18.30;99.90;;;;;;5050903;28;20045;-53
2023/07/01 00:38:09;;;;;;;23.65;12.68;;;18.30;99.90;;;;;;5051334;28;20051;-55
2023/07/01 00:41:14;;;;;;;23.25;13.18;;;18.10;99.90;;;;;;5051116;28;20056;-53
2023/07/01 00:44:18;;;;;;;24.90;12.90;;;18.00;99.90;;;;;;5052340;28;20051;-51
2023/07/01 00:47:23;;;;;;;20.83;11.48;;;18.10;99.90;;;;;;5052229;28;20063;-54
2023/07/01 00:50:28;;;;;;;22.77;12.82;;;18.20;99.90;;;;;;5051656;28;20415;-52
2023/07/01 00:53:32;;;;;;;22.00;11.77;;;18.20;99.90;;;;;;5051412;28;20044;-52
2023/07/01 00:56:35;;;;;;;20.92;11.57;;;18.30;99.90;;;;;;5051965;28;20048;-53
2023/07/01 00:59:40;;;;;;;20.98;11.50;;;18.30;99.90;;;;;;5050630;28;20594;-51
2023/07/01 01:03:04;;;;;;;19.60;10.73;;;18.30;99.90;;;;;;5051116;28;20056;-53
2023/07/01 01:06:22;;;;;;;19.00;12.70;;;18.30;99.90;;;;;;5050980;28;20052;-51
2023/07/01 01:09:47;;;;;;;22.92;11.18;;;18.30;99.90;;;;;;5050505;28;20047;-51
2023/07/01 01:12:56;;;;;;;19.63;11.90;;;18.20;99.90;;;;;;5050687;28;20044;-55
2023/07/01 01:16:02;;;;;;;20.63;11.73;;;18.20;99.90;;;;;;5050524;28;20044;-54
2023/07/01 01:19:24;;;;;;;25.65;12.65;;;18.10;99.90;;;;;;5051330;28;20510;-51
2023/07/01 01:22:38;;;;;;;18.65;11.52;;;18.20;99.90;;;;;;5050593;28;20052;-55
2023/07/01 01:26:09;;;;;;;21.60;12.93;;;18.10;99.90;;;;;;5050337;28;20043;-51
2023/07/01 01:29:13;;;;;;;24.40;13.13;;;18.10;99.90;;;;;;5050939;28;20052;-51
2023/07/01 01:32:18;;;;;;;22.90;11.30;;;18.10;99.90;;;;;;5050301;28;20040;-52
2023/07/01 01:35:22;;;;;;;22.30;11.63;;;18.20;99.90;;;;;;5049880;28;20043;-53
2023/07/01 01:38:32;;;;;;;17.95;10.73;;;18.20;99.90;;;;;;5050120;28;20043;-52
2023/07/01 01:41:39;;;;;;;19.45;11.65;;;18.10;99.90;;;;;;5050385;28;20059;-50
2023/07/01 01:44:47;;;;;;;18.85;11.23;;;18.10;99.90;;;;;;5050673;28;20048;-51
2023/07/01 01:47:52;;;;;;;21.70;10.98;;;17.90;99.90;;;;;;5050829;28;20047;-52
2023/07/01 01:50:57;;;;;;;17.50;10.73;;;17.80;99.90;;;;;;5050208;28;20051;-55
2023/07/01 01:54:05;;;;;;;18.38;10.40;;;17.80;99.90;;;;;;5050378;28;20044;-51
2023/07/01 01:57:10;;;;;;;17.33;9.75;;;17.70;99.90;;;;;;5049866;28;20044;-55
2023/07/01 02:00:15;;;;;;;15.27;8.65;;;17.70;99.90;;;;;;5049618;28;20039;-51
2023/07/01 02:03:19;;;;;;;11.93;6.93;;;17.70;99.90;;;;;;5050189;28;20044;-55
2023/07/01 02:06:23;;;;;;;11.45;6.78;;;17.60;99.90;;;;;;5049474;28;20052;-55
2023/07/01 02:09:28;;;;;;;12.88;5.88;;;17.40;99.90;;;;;;5049403;28;20056;-54
2023/07/01 02:12:32;;;;;;;11.30;5.28;;;17.20;99.90;;;;;;5037330;28;20044;-54
2023/07/01 02:15:36;;;;;;;11.75;5.35;;;17.10;99.90;;;;;;5049953;28;20032;-55
2023/07/01 02:18:40;;;;;;;9.75;5.40;;;17.00;99.90;;;;;;5049332;28;20407;-54
2023/07/01 02:21:44;;;;;;;10.07;4.97;;;16.90;99.90;;;;;;5048588;28;20037;-52
2023/07/01 02:24:47;;;;;;;10.15;4.72;;;16.90;99.90;;;;;;5049879;28;20525;-51
2023/07/01 02:27:51;;;;;;;10.95;5.22;;;16.80;99.90;;;;;;5048904;28;20044;-51
2023/07/01 02:30:55;;;;;;;9.55;5.38;;;16.60;99.90;;;;;;5049585;28;20407;-52
2023/07/01 02:34:00;;;;;;;12.05;5.75;;;16.60;99.90;;;;;;5049628;28;20045;-55
2023/07/01 02:37:06;;;;;;;10.60;5.88;;;16.50;99.90;;;;;;5049034;28;20119;-55
2023/07/01 02:40:10;;;;;;;12.45;6.00;;;16.50;99.90;;;;;;5049551;28;20040;-56
2023/07/01 02:43:14;;;;;;;14.70;7.68;;;16.50;99.90;;;;;;5048540;28;20036;-56
2023/07/01 02:46:18;;;;;;;12.70;6.55;;;16.60;99.90;;;;;;5049595;28;20056;-54
2023/07/01 02:49:22;;;;;;;14.32;7.18;;;16.50;99.90;;;;;;5049941;28;20206;-54
2023/07/01 02:52:26;;;;;;;13.57;6.68;;;16.50;99.90;;;;;;5048192;28;20518;-55
2023/07/01 02:55:30;;;;;;;17.35;6.60;;;16.40;99.90;;;;;;5048731;28;20051;-55
2023/07/01 02:58:34;;;;;;;19.00;6.78;;;16.40;99.90;;;;;;5048660;28;20048;-56
2023/07/01 03:01:38;;;;;;;12.63;6.22;;;16.30;99.90;;;;;;5049327;28;20044;-53
2023/07/01 03:04:41;;;;;;;10.95;6.53;;;16.30;99.90;;;;;;5049585;28;20052;-56
2023/07/01 03:07:45;;;;;;;15.95;6.43;;;16.40;99.90;;;;;;5049767;28;20048;-54
2023/07/01 03:10:49;;;;;;;18.42;6.15;;;16.50;99.90;;;;;;5049639;28;20048;-54
2023/07/01 03:13:53;;;;;;;13.70;6.60;;;16.50;99.90;;;;;;5049313;28;20076;-56
2023/07/01 03:16:57;;;;;;;14.85;7.18;;;16.50;99.90;;;;;;5048195;28;20040;-53
2023/07/01 03:20:04;;;;;;;14.43;6.50;;;16.40;99.90;;;;;;5049593;28;20048;-52
2023/07/01 03:23:08;;;;;;;16.88;8.02;;;16.30;99.90;;;;;;5048617;28;20056;-54
2023/07/01 03:26:12;;;;;;;19.50;7.60;;;16.20;99.90;;;;;;5050131;28;20391;-54
2023/07/01 03:29:16;;;;;;;18.08;7.95;;;16.20;99.90;;;;;;5049728;28;20048;-52
2023/07/01 03:32:20;;;;;;;14.02;7.38;;;16.30;99.90;;;;;;5048235;28;20052;-52
2023/07/01 03:35:24;;;;;;;16.90;9.23;;;16.30;99.90;;;;;;5049386;28;20514;-53
2023/07/01 03:38:28;;;;;;;17.88;10.02;;;16.30;99.90;;;;;;5049409;28;20055;-55
2023/07/01 03:41:32;;;;;;;18.17;9.85;;;16.30;99.90;;;;;;5049280;28;20048;-52
2023/07/01 03:44:36;;;;;;;17.23;10.25;;;16.30;99.90;;;;;;5049504;28;20043;-54
2023/07/01 03:47:44;;;;;;;15.98;8.93;;;16.30;99.90;;;;;;5049623;28;20530;-52
2023/07/01 03:50:49;;;;;;;19.27;9.82;;;16.30;99.90;;;;;;5049176;28;20067;-52
2023/07/01 03:53:52;;;;;;;17.10;10.93;;;16.30;99.90;;;;;;5049272;28;20048;-52
2023/07/01 03:56:56;;;;;;;20.42;10.40;;;16.30;99.90;;;;;;5049719;28;20090;-54
2023/07/01 04:00:08;;;;;;;17.38;10.75;;;16.40;99.90;;;;;;5052960;28;20064;-51
2023/07/01 04:03:16;;;;;;;15.57;9.73;;;16.40;99.90;;;;;;5052434;28;20047;-55
2023/07/01 04:06:20;;;;;;;20.05;11.63;;;16.40;99.90;;;;;;5052733;28;20055;-54
2023/07/01 04:09:25;;;;;;;24.23;11.88;;;16.50;99.90;;;;;;5052454;28;20056;-52
2023/07/01 04:12:29;;;;;;;18.45;11.15;;;16.50;99.90;;;;;;5052220;28;20044;-52
2023/07/01 04:15:33;;;;;;;18.63;11.68;;;16.50;99.90;;;;;;5052408;28;20052;-53
2023/07/01 04:18:37;;;;;;;22.25;12.13;;;16.50;99.90;;;;;;5052322;28;20048;-55
2023/07/01 04:21:41;;;;;;;19.70;9.88;;;16.50;99.90;;;;;;5052122;28;20064;-52
2023/07/01 04:24:44;;;;;;;23.70;10.95;;;16.60;99.90;;;;;;5052024;28;20415;-55
2023/07/01 04:27:48;;;;;;;23.25;10.70;;;16.70;99.90;;;;;;5052306;28;20044;-56
2023/07/01 04:30:52;;;;;;;13.73;8.60;;;16.50;99.90;;;;;;5052075;28;20044;-55
2023/07/01 04:33:56;;;;;;;16.95;9.15;;;16.60;99.90;;;;;;5051811;28;20056;-54
2023/07/01 04:37:00;;;;;;;16.75;8.40;;;16.70;99.90;;;;;;5052190;28;20506;-53
2023/07/01 04:40:05;;;;;;;15.65;8.90;;;16.80;99.90;;;;;;5051887;28;20048;-54
2023/07/01 04:43:10;;;;;;;12.85;7.90;;;16.90;99.90;;;;;;5051557;28;20044;-52
2023/07/01 04:46:14;;;;;;;16.08;8.65;;;17.10;99.90;;;;;;5051494;28;20609;-52
2023/07/01 04:49:18;;;;;;;12.40;8.30;;;17.60;99.90;;;;;;5051063;28;20048;-57
2023/07/01 04:52:23;;;;;;;17.17;9.30;;;17.70;99.90;;;;;;5051398;28;20048;-56
2023/07/01 04:55:27;;;;;;;14.63;7.82;;;17.60;99.90;;;;;;5051490;28;20115;-56
2023/07/01 04:58:31;;;;;;;13.48;7.10;;;17.40;99.90;;;;;;5051665;28;20510;-53
2023/07/01 05:01:35;;;;;;;24.77;8.15;;;17.10;99.90;;;;;;5051162;28;20051;-55
2023/07/01 05:04:39;;;;;;;13.25;7.43;;;17.10;99.90;;;;;;5051359;28;20048;-55
2023/07/01 05:07:42;;;;;;;14.27;7.00;;;17.10;99.90;;;;;;5051406;28;20514;-53
2023/07/01 05:10:46;;;;;;;10.90;6.35;;;17.10;99.90;;;;;;5051261;28;20048;-55
2023/07/01 05:13:50;;;;;;;11.98;6.65;;;17.20;99.90;;;;;;5051569;28;20048;-56
2023/07/01 05:16:54;;;;;;;13.30;6.13;;;17.30;99.90;;;;;;5051112;28;20040;-54
2023/07/01 05:19:58;;;;;;;13.80;5.45;;;17.60;99.90;;;;;;5051331;28;20064;-56
2023/07/01 05:23:02;;;;;;;9.00;5.22;;;18.00;99.90;;;;;;5051216;28;20044;-53
2023/07/01 05:26:06;;;;;;;11.98;5.65;;;18.10;99.90;;;;;;5051186;28;20161;-51
2023/07/01 05:29:10;;;;;;;8.02;5.03;;;18.40;99.90;;;;;;5051645;28;20048;-55
2023/07/01 05:32:14;;;;;;;11.27;5.70;;;18.40;99.90;;;;;;5050664;28;20051;-51
2023/07/01 05:35:18;;;;;;;15.00;5.18;;;18.50;99.90;;;;;;5049951;28;20048;-53
2023/07/01 05:38:22;;;;;;;7.82;4.90;;;18.70;99.90;;;;;;5050795;28;20052;-54
2023/07/01 05:41:26;;;;;;;9.90;4.97;;;19.30;99.90;;;;;;5050569;28;20104;-52
2023/07/01 05:44:30;;;;;;;12.60;5.57;;;19.40;99.90;;;;;;5050835;28;20040;-55
2023/07/01 05:47:34;;;;;;;12.07;5.20;;;19.50;99.90;;;;;;5050510;28;20047;-53
2023/07/01 05:50:39;;;;;;;9.70;4.75;;;19.50;99.90;;;;;;5050215;28;20411;-53
2023/07/01 05:53:45;;;;;;;12.88;5.15;;;20.40;99.90;;;;;;5050730;28;20049;-52
2023/07/01 05:56:49;;;;;;;11.68;5.05;;;20.30;99.90;;;;;;5050405;28;20044;-54
2023/07/01 05:59:53;;;;;;;8.30;4.65;;;20.30;99.90;;;;;;5050433;28;20510;-56
2023/07/01 06:02:57;;;;;;;7.22;4.78;;;21.30;99.90;;;;;;5050375;28;20033;-56
2023/07/01 06:06:01;;;;;;;8.38;5.25;;;20.90;99.90;;;;;;5050501;28;20467;-55
2023/07/01 06:09:08;;;;;;;8.93;4.65;;;20.30;99.90;;;;;;5050304;28;20053;-51
2023/07/01 06:12:12;;;;;;;9.25;4.80;;;20.00;99.90;;;;;;5049952;28;20033;-56
2023/07/01 06:15:15;;;;;;;7.53;4.88;;;20.10;99.90;;;;;;5049142;28;20033;-55
2023/07/01 06:18:20;;;;;;;8.48;4.70;;;20.30;99.90;;;;;;5050340;28;20041;-56
2023/07/01 06:21:24;;;;;;;7.85;5.03;;;19.90;99.90;;;;;;5049524;28;20040;-51
2023/07/01 06:24:28;;;;;;;9.38;4.93;;;19.80;99.90;;;;;;5050053;28;20069;-52
2023/07/01 06:27:32;;;;;;;9.73;4.88;;;19.50;99.90;;;;;;5049875;28;20037;-55
2023/07/01 06:30:36;;;;;;;11.18;4.38;;;19.60;99.90;;;;;;5049986;28;20040;-51
2023/07/01 06:33:40;;;;;;;11.45;4.72;;;19.50;99.90;;;;;;5049406;28;20512;-52
2023/07/01 06:36:44;;;;;;;10.60;4.80;;;19.40;99.90;;;;;;5049842;28;20051;-55
2023/07/01 06:39:48;;;;;;;7.50;4.03;;;19.60;99.90;;;;;;5050226;28;20403;-52
2023/07/01 06:42:52;;;;;;;8.07;3.83;;;21.00;99.90;;;;;;5049743;28;20040;-55
2023/07/01 06:45:56;;;;;;;12.02;4.72;;;22.60;99.90;;;;;;5049842;28;20056;-53
2023/07/01 06:49:01;;;;;;;8.23;3.75;;;22.80;99.90;;;;;;5050219;28;20530;-55
2023/07/01 06:52:05;;;;;;;7.32;3.90;;;22.40;99.90;;;;;;5049179;28;20057;-56
2023/07/01 06:55:09;;;;;;;9.57;4.57;;;22.10;99.90;;;;;;5049640;28;20037;-53
2023/07/01 06:58:13;;;;;;;7.57;4.30;;;22.20;99.90;;;;;;5049546;28;20514;-55
2023/07/01 07:01:17;;;;;;;6.93;3.97;;;22.20;99.90;;;;;;5049209;28;20040;-55
2023/07/01 07:04:21;;;;;;;9.52;4.53;;;22.00;99.90;;;;;;5049864;28;20041;-53
2023/07/01 07:07:25;;;;;;;6.63;4.10;;;22.00;99.90;;;;;;5049494;28;20048;-55
2023/07/01 07:10:29;;;;;;;6.20;4.07;;;21.60;99.90;;;;;;5049558;28;20061;-56
2023/07/01 07:13:33;;;;;;;9.88;3.60;;;22.30;99.90;;;;;;5049070;28;20048;-55
2023/07/01 07:16:37;;;;;;;8.15;4.53;;;22.80;99.90;;;;;;5049251;28;20040;-55
2023/07/01 07:19:41;;;;;;;7.88;3.75;;;23.30;99.90;;;;;;5049692;28;20044;-52
2023/07/01 07:22:45;;;;;;;8.00;4.00;;;22.90;99.90;;;;;;5048914;28;20037;-52
2023/07/01 07:25:49;;;;;;;6.15;3.78;;;22.80;99.90;;;;;;5049563;28;20041;-54
2023/07/01 07:28:53;;;;;;;8.63;3.88;;;23.20;99.90;;;;;;5049155;28;20040;-52
2023/07/01 07:31:57;;;;;;;8.15;3.75;;;23.60;99.90;;;;;;5049411;28;20056;-56
2023/07/01 07:35:01;;;;;;;8.63;4.10;;;23.60;99.90;;;;;;5053392;28;20040;-55
2023/07/01 07:38:04;;;;;;;9.55;4.20;;;22.60;99.90;;;;;;5053021;28;20045;-52
2023/07/01 07:41:10;;;;;;;7.05;3.78;;;22.70;99.90;;;;;;5052871;28;20045;-56
2023/07/01 07:44:13;;;;;;;7.55;4.40;;;23.90;99.90;;;;;;5053216;28;20530;-52
2023/07/01 07:47:17;;;;;;;8.05;3.55;;;26.70;99.90;;;;;;5052898;28;20048;-52
2023/07/01 07:50:21;;;;;;;7.20;3.90;;;27.60;99.90;;;;;;5053089;28;20053;-54
2023/07/01 07:53:26;;;;;;;6.82;3.75;;;27.20;99.90;;;;;;5052732;28;20411;-55
2023/07/01 07:56:31;;;;;;;4.93;3.28;;;26.30;99.90;;;;;;5053351;28;20044;-54
2023/07/01 07:59:34;;;;;;;6.82;3.97;;;25.80;99.90;;;;;;5053083;28;20446;-52
2023/07/01 08:02:42;;;;;;;6.10;3.88;;;25.40;99.90;;;;;;5052610;28;20435;-52
2023/07/01 08:05:51;;;;;;;6.95;3.78;;;25.20;99.90;;;;;;5052874;28;20226;-51
2023/07/01 08:08:55;;;;;;;6.68;3.67;;;25.30;99.90;;;;;;5052356;28;20052;-55
2023/07/01 08:11:59;;;;;;;8.20;3.90;;;25.00;99.90;;;;;;5052284;28;20064;-52
2023/07/01 08:15:03;;;;;;;5.55;3.92;;;25.00;99.90;;;;;;5052127;28;20048;-52
2023/07/01 08:18:08;;;;;;;5.72;3.63;;;25.10;99.90;;;;;;5052381;28;20044;-54
2023/07/01 08:21:13;;;;;;;6.28;3.83;;;25.20;99.90;;;;;;5052433;28;20033;-51
2023/07/01 08:24:18;;;;;;;6.78;3.78;;;25.50;99.90;;;;;;5052248;28;20060;-55
2023/07/01 08:27:22;;;;;;;6.07;3.97;;;26.50;99.90;;;;;;5052021;28;20049;-57
2023/07/01 08:30:26;;;;;;;9.45;4.43;;;27.40;99.90;;;;;;5052118;28;20045;-52
2023/07/01 08:33:30;;;;;;;6.32;3.70;;;27.80;99.90;;;;;;5051633;28;20407;-55
2023/07/01 08:36:34;;;;;;;7.68;3.97;;;27.40;99.90;;;;;;5052315;28;20518;-52
2023/07/01 08:39:38;;;;;;;7.63;4.90;;;27.40;99.90;;;;;;5051631;28;20040;-52
2023/07/01 08:42:52;;;;;;;7.00;4.35;;;28.00;99.90;;;;;;5051681;28;20049;-52
2023/07/01 08:46:04;;;;;;;7.40;4.93;;;28.20;99.90;;;;;;5052047;28;20408;-51
2023/07/01 08:49:10;;;;;;;9.85;6.07;;;26.00;99.90;;;;;;5051653;28;20059;-56
2023/07/01 08:52:17;;;;;;;7.90;5.05;;;27.60;99.90;;;;;;5051885;28;20048;-53
2023/07/01 08:55:23;;;;;;;6.65;4.72;;;28.60;99.90;;;;;;5052151;28;20044;-52
2023/07/01 08:58:28;;;;;;;7.82;4.47;;;26.70;99.90;;;;;;5051869;28;20498;-56
2023/07/01 09:01:33;;;;;;;18.50;5.40;;;26.00;99.90;;;;;;5051785;28;20051;-57
2023/07/01 09:04:38;;;;;;;6.93;4.40;;;26.10;99.90;;;;;;5051910;28;20048;-55
2023/07/01 09:07:42;;;;;;;7.70;3.63;;;27.70;99.90;;;;;;5052228;28;20507;-55
2023/07/01 09:10:46;;;;;;;9.70;4.68;;;27.70;99.90;;;;;;5051963;28;20516;-55
2023/07/01 09:13:57;;;;;;;7.97;4.03;;;28.80;99.90;;;;;;5051669;28;20063;-55
2023/07/01 09:17:00;;;;;;;6.53;3.75;;;30.70;99.90;;;;;;5051714;28;20301;-55
2023/07/01 09:20:07;;;;;;;5.45;3.58;;;32.90;99.90;;;;;;5051262;28;20112;-56
2023/07/01 09:23:11;;;;;;;10.85;4.82;;;32.30;99.90;;;;;;5051401;28;20483;-52
2023/07/01 09:26:17;;;;;;;5.63;3.90;;;30.30;99.90;;;;;;5051511;28;20048;-56
2023/07/01 09:29:24;;;;;;;8.48;4.00;;;29.30;99.90;;;;;;5050754;28;20050;-56
2023/07/01 09:32:28;;;;;;;6.90;4.22;;;28.10;99.90;;;;;;5050909;28;20502;-56
2023/07/01 09:35:46;;;;;;;5.63;4.03;;;30.10;99.90;;;;;;5050924;28;20033;-55
2023/07/01 09:38:51;;;;;;;7.20;3.80;;;31.20;99.90;;;;;;5050860;28;20064;-52
2023/07/01 09:42:03;;;;;;;6.25;4.13;;;30.80;99.90;;;;;;5050875;28;20044;-52
2023/07/01 09:45:08;;;;;;;6.20;4.05;;;30.70;99.90;;;;;;5050783;28;20029;-55
2023/07/01 09:48:14;;;;;;;13.40;5.10;;;29.80;99.90;;;;;;5050862;28;20045;-57
2023/07/01 09:51:19;;;;;;;8.90;4.18;;;31.80;99.90;;;;;;5050141;28;20056;-53
2023/07/01 09:54:28;;;;;;;7.45;4.22;;;34.60;99.80;;;;;;5050400;28;20255;-52
2023/07/01 09:57:32;;;;;;;6.30;3.83;;;32.70;99.70;;;;;;5050666;28;20411;-57
2023/07/01 10:00:35;;;;;;;5.25;4.03;;;32.40;99.30;;;;;;5050222;28;20297;-55
2023/07/01 10:03:41;;;;;;;7.68;4.78;;;35.20;97.10;;;;;;5050468;28;20320;-52
2023/07/01 10:06:45;;;;;;;9.63;4.63;;;34.10;96.70;;;;;;5050513;28;20044;-56
2023/07/01 10:09:51;;;;;;;8.82;4.45;;;35.30;96.30;;;;;;5050039;28;20051;-56
2023/07/01 10:13:01;;;;;;;7.28;4.45;;;33.70;98.60;;;;;;5049780;28;20442;-52
2023/07/01 10:16:07;;;;;;;5.25;3.83;;;33.10;98.10;;;;;;5049954;28;20044;-55
2023/07/01 10:19:32;;;;;;;7.43;4.20;;;33.80;98.50;;;;;;5049750;28;20044;-52
2023/07/01 10:22:53;;;;;;;6.25;4.20;;;35.90;96.10;;;;;;5049971;28;20049;-56
2023/07/01 10:26:36;;;;;;;6.00;4.30;;;35.90;96.40;;;;;;5050206;28;20048;-52
2023/07/01 10:29:40;;;;;;;5.60;4.20;;;36.80;95.80;;;;;;5050106;28;20514;-53
2023/07/01 10:32:44;;;;;;;8.20;4.85;;;35.90;95.50;;;;;;5050296;28;20048;-52
2023/07/01 10:36:08;;;;;;;8.48;4.25;;;35.40;95.40;;;;;;5050225;28;20108;-56
2023/07/01 10:39:34;;;;;;;7.22;4.60;;;36.20;95.80;;;;;;5050213;28;20052;-56
2023/07/01 10:42:39;;;;;;;7.78;4.50;;;33.50;96.20;;;;;;5049525;28;20415;-52
2023/07/01 10:45:42;;;;;;;6.15;4.07;;;34.90;96.00;;;;;;5048898;28;20411;-56
2023/07/01 10:49:01;;;;;;;8.82;4.80;;;35.80;96.70;;;;;;5050039;28;20052;-56
2023/07/01 10:52:06;;;;;;;7.00;5.07;;;35.40;94.60;;;;;;5049651;28;20045;-55
2023/07/01 10:55:36;;;;;;;6.95;5.10;;;33.80;96.80;;;;;;5049595;28;20048;-56
2023/07/01 10:58:40;;;;;;;10.75;5.82;;;34.70;95.20;;;;;;5049980;28;20045;-52
2023/07/01 11:01:49;;;;;;;9.43;5.50;;;34.20;95.20;;;;;;5048144;28;20134;-52
2023/07/01 11:04:54;;;;;;;10.98;6.45;;;31.40;97.80;;;;;;5049879;28;20048;-52
2023/07/01 11:08:10;;;;;;;8.38;5.05;;;31.10;98.70;;;;;;5053660;28;20064;-56
2023/07/01 11:11:28;;;;;;;10.10;5.72;;;30.90;99.20;;;;;;5053305;28;20040;-53
2023/07/01 11:14:38;;;;;;;12.30;6.20;;;31.90;96.90;;;;;;5053509;28;20070;-52
2023/07/01 11:17:53;;;;;;;;;;;33.80;95.70;;;;;;5054086;28;20043;-51
2023/07/01 11:20:56;;;;;;;8.73;5.65;;;34.80;95.30;;;;;;5053400;28;20288;-55
2023/07/01 11:24:03;;;;;;;8.68;5.63;;;31.40;97.70;;;;;;5053595;28;20052;-53
2023/07/01 11:27:08;;;;;;;7.47;5.10;;;30.80;98.30;;;;;;5053467;28;20511;-55
2023/07/01 11:30:31;;;;;;;7.63;5.60;;;30.70;99.60;;;;;;5053202;28;20044;-52
2023/07/01 11:33:35;;;;;;;9.10;5.25;;;33.30;98.50;;;;;;5052867;28;20043;-56
2023/07/01 11:36:40;;;;;;;8.18;5.50;;;32.90;97.40;;;;;;5053295;28;20041;-55
2023/07/01 11:39:44;;;;;;;9.48;6.20;;;31.80;98.20;;;;;;5053246;28;20032;-51
2023/07/01 11:42:48;;;;;;;8.77;5.85;;;31.70;97.90;;;;;;5052623;28;20041;-54
2023/07/01 11:45:53;;;;;;;10.48;6.25;;;30.60;98.20;;;;;;5053077;28;20060;-54
2023/07/01 11:48:57;;;;;;;9.82;6.32;;;29.20;98.80;;;;;;5053395;28;20423;-51
2023/07/01 11:52:03;;;;;;;10.40;6.78;;;29.90;99.00;;;;;;5052772;28;20065;-55
2023/07/01 11:55:07;;;;;;;9.27;6.63;;;28.80;98.70;;;;;;5053405;28;20047;-54
2023/07/01 11:58:48;;;;;;;12.43;6.97;;;29.90;98.90;;;;;;5052608;28;20037;-55
2023/07/01 12:01:52;;;;;;;9.82;6.25;;;28.70;98.60;;;;;;5031053;28;20044;-51
2023/07/01 12:04:56;;;;;;;8.63;6.30;;;29.90;98.80;;;;;;5052948;28;20048;-55
2023/07/01 12:08:00;;;;;;;11.70;6.03;;;30.30;99.00;;;;;;5052622;28;20048;-55
2023/07/01 12:11:15;;;;;;;8.75;5.78;;;31.60;97.80;;;;;;5052265;28;20048;-52
2023/07/01 12:14:21;;;;;;;9.00;6.63;;;32.20;98.80;;;;;;5052373;28;20421;-52
2023/07/01 12:17:28;;;;;;;10.68;6.28;;;32.30;97.10;;;;;;5052105;28;20047;-51
2023/07/01 12:20:32;;;;;;;9.70;6.45;;;32.90;96.60;;;;;;5052281;28;20498;-53
2023/07/01 12:23:41;;;;;;;9.55;6.18;;;32.00;97.30;;;;;;5052167;28;20044;-55
2023/07/01 12:26:50;;;;;;;10.70;6.25;;;32.10;98.60;;;;;;5052227;28;20036;-51
2023/07/01 12:29:54;;;;;;;10.85;5.60;;;32.90;96.20;;;;;;5052061;28;20534;-55
2023/07/01 12:32:58;;;;;;;9.13;6.18;;;33.30;97.10;;;;;;5051887;28;20048;-54
2023/07/01 12:36:02;;;;;;;8.48;5.88;;;33.00;96.70;;;;;;5052062;28;20050;-52
2023/07/01 12:39:09;;;;;;;10.25;6.30;;;32.90;96.80;;;;;;5052221;28;20037;-55
2023/07/01 12:42:13;;;;;;;10.98;6.88;;;32.80;96.60;;;;;;5051646;28;20040;-51
2023/07/01 12:45:17;;;;;;;8.88;6.30;;;32.00;97.00;;;;;;5051874;28;20040;-55
2023/07/01 12:48:21;;;;;;;10.13;6.70;;;31.70;96.80;;;;;;5052014;28;20067;-56
2023/07/01 12:51:25;;;;;;;9.77;6.32;;;32.00;96.90;;;;;;5051268;28;20048;-52
2023/07/01 12:54:33;;;;;;;10.05;6.72;;;32.70;96.80;;;;;;5051399;28;20045;-51
2023/07/01 12:57:39;;;;;;;12.15;7.28;;;32.60;96.50;;;;;;5051989;28;20047;-55
2023/07/01 13:00:45;;;;;;;9.85;6.57;;;31.60;97.00;;;;;;5051753;28;20040;-56
2023/07/01 13:03:49;;;;;;;9.02;7.00;;;32.30;96.90;;;;;;5051754;28;20527;-55
2023/07/01 13:06:55;;;;;;;10.70;6.57;;;32.00;96.90;;;;;;5051932;28;20411;-53
2023/07/01 13:10:00;;;;;;;9.57;6.55;;;32.20;97.00;;;;;;5051617;28;20511;-53
2023/07/01 13:13:04;;;;;;;9.90;6.65;;;32.10;96.90;;;;;;5050931;28;20040;-51
2023/07/01 13:16:30;;;;;;;10.48;6.60;;;31.70;97.00;;;;;;5051773;28;20089;-54
2023/07/01 13:19:34;;;;;;;11.27;6.85;;;31.90;97.40;;;;;;5051018;28;20112;-55
2023/07/01 13:22:38;;;;;;;9.35;6.47;;;32.50;95.80;;;;;;5050777;28;20040;-51
2023/07/01 13:25:41;;;;;;;9.60;6.93;;;32.40;95.90;;;;;;5050933;28;20036;-56
2023/07/01 13:28:46;;;;;;;7.93;5.68;;;32.50;97.30;;;;;;5051236;28;20399;-51
2023/07/01 13:31:50;;;;;;;9.55;6.72;;;31.80;96.10;;;;;;5050340;28;20044;-55
2023/07/01 13:34:55;;;;;;;8.40;6.22;;;31.70;95.90;;;;;;5050594;28;20252;-52
2023/07/01 13:38:09;;;;;;;10.20;6.95;;;32.10;96.20;;;;;;5050541;28;20037;-55
2023/07/01 13:41:22;;;;;;;10.57;6.57;;;31.50;95.80;;;;;;5050997;28;20036;-56
2023/07/01 13:44:26;;;;;;;9.23;6.30;;;31.50;97.20;;;;;;5050794;28;20055;-55
2023/07/01 13:47:47;;;;;;;9.15;6.55;;;31.90;96.30;;;;;;5051009;28;20043;-56
2023/07/01 13:50:51;;;;;;;7.60;5.80;;;32.30;97.30;;;;;;5050746;28;20069;-56
2023/07/01 13:53:56;;;;;;;7.95;5.75;;;32.50;96.20;;;;;;5050608;28;20049;-51
2023/07/01 13:57:01;;;;;;;8.20;6.05;;;32.10;96.70;;;;;;5051039;28;20045;-56
2023/07/01 14:00:13;;;;;;;8.13;6.03;;;31.60;97.60;;;;;;5050788;28;20040;-56
2023/07/01 14:03:23;;;;;;;9.13;6.65;;;31.40;98.10;;;;;;5050364;28;20044;-55
2023/07/01 14:06:30;;;;;;;8.27;6.18;;;30.20;98.50;;;;;;5050859;28;20052;-56
2023/07/01 14:09:36;;;;;;;10.52;7.55;;;29.30;99.80;;;;;;5050629;28;20044;-51
2023/07/01 14:12:40;;;;;;;10.10;6.75;;;29.30;99.90;;;;;;5050302;28;20052;-55
2023/07/01 14:15:53;;;;;;;10.38;7.18;;;28.80;99.90;;;;;;5050622;28;20052;-55
2023/07/01 14:18:58;;;;;;;13.10;7.43;;;28.00;99.90;;;;;;5050520;28;20044;-56
2023/07/01 14:22:02;;;;;;;12.30;7.70;;;27.30;99.90;;;;;;5049810;28;20050;-57
2023/07/01 14:25:06;;;;;;;14.70;8.07;;;26.70;99.90;;;;;;5050160;28;20419;-51
2023/07/01 14:28:11;;;;;;;13.20;7.05;;;26.20;99.90;;;;;;5050023;28;20040;-55
2023/07/01 14:31:32;;;;;;;16.70;7.68;;;25.90;99.90;;;;;;5049685;28;20059;-54
2023/07/01 14:34:40;;;;;;;13.18;7.88;;;26.00;99.90;;;;;;5048908;28;20048;-53
2023/07/01 14:37:47;;;;;;;15.15;8.15;;;25.90;99.90;;;;;;5050084;28;20044;-55
2023/07/01 14:40:51;;;;;;;11.38;7.32;;;26.00;99.90;;;;;;5049638;28;20052;-56
2023/07/01 14:44:18;;;;;;;13.70;8.65;;;26.20;99.90;;;;;;5049753;28;20044;-53
2023/07/01 14:47:23;;;;;;;18.45;7.80;;;26.50;99.90;;;;;;5049916;28;20040;-52
2023/07/01 14:50:26;;;;;;;11.70;8.07;;;27.10;99.90;;;;;;5049191;28;20060;-54
2023/07/01 14:53:32;;;;;;;11.18;6.95;;;27.70;99.90;;;;;;5047343;28;20332;-52
2023/07/01 14:56:36;;;;;;;11.85;8.07;;;27.90;99.90;;;;;;5049829;28;20048;-56
2023/07/01 14:59:40;;;;;;;12.48;7.65;;;27.80;99.90;;;;;;5049634;28;20048;-54
2023/07/01 15:02:45;;;;;;;11.70;7.22;;;27.80;99.90;;;;;;5049168;28;20342;-51
2023/07/01 15:05:49;;;;;;;9.77;7.05;;;28.20;99.90;;;;;;5049627;28;20503;-51
2023/07/01 15:08:53;;;;;;;10.38;7.20;;;28.50;99.90;;;;;;5049433;28;20038;-55
2023/07/01 15:11:57;;;;;;;11.18;7.07;;;28.10;99.90;;;;;;5049414;28;20044;-51
2023/07/01 15:15:01;;;;;;;10.95;6.47;;;27.80;99.90;;;;;;5049488;28;20399;-53
2023/07/01 15:18:05;;;;;;;14.13;8.15;;;28.30;99.90;;;;;;5049651;28;20044;-56
2023/07/01 15:21:09;;;;;;;10.88;7.45;;;28.20;99.90;;;;;;5049402;28;20058;-56
2023/07/01 15:24:13;;;;;;;9.85;7.43;;;28.00;99.90;;;;;;5049192;28;20048;-56
2023/07/01 15:27:17;;;;;;;14.07;8.07;;;27.40;99.90;;;;;;5049099;28;20040;-55
2023/07/01 15:30:21;;;;;;;16.25;7.60;;;26.50;99.90;;;;;;5049478;28;20048;-56
2023/07/01 15:33:25;;;;;;;12.60;7.85;;;26.50;99.90;;;;;;5049079;28;20040;-56
2023/07/01 15:36:29;;;;;;;15.38;7.55;;;25.50;99.90;;;;;;5049435;28;20044;-52
2023/07/01 15:39:32;;;;;;;11.27;7.18;;;25.90;99.90;;;;;;5049348;28;20116;-54
2023/07/01 15:42:36;;;;;;;12.98;7.53;;;26.50;99.90;;;;;;5049115;28;20044;-52
2023/07/01 15:45:40;;;;;;;11.15;7.30;;;26.10;99.90;;;;;;5049459;28;20068;-52
2023/07/01 15:48:44;;;;;;;11.55;7.22;;;26.20;99.90;;;;;;5049278;28;20055;-55
2023/07/01 15:51:48;;;;;;;13.25;7.45;;;26.10;99.90;;;;;;5048530;28;20056;-52
2023/07/01 15:54:52;;;;;;;12.45;7.97;;;26.10;99.90;;;;;;5052247;28;20522;-52
2023/07/01 15:57:56;;;;;;;11.60;7.68;;;26.20;99.90;;;;;;5053110;28;20044;-51
2023/07/01 16:01:00;;;;;;;10.68;7.38;;;25.80;99.90;;;;;;5052790;28;20044;-56